Time;durP1;ratioP1;P1;durP2;ratioP2;P2;SDS_P1;SDS_P2;PMS_P1;PMS_P2;Temp;Humidity;BMP_temperature;BMP_pressure;BME280_temperature;BME280_humidity;BME280_pressure;Samples;Min_cycle;Max_cycle;Signal;HPM_P1;HPM_P2
2022/11/28 00:00:25;;;;;;;5.15;2.10;;;6.20;99.90;;;;;;6185464;23;20017;-86
2022/11/28 00:02:51;;;;;;;3.60;2.05;;;6.20;99.90;;;;;;6184965;23;20100;-86
2022/11/28 00:05:17;;;;;;;3.47;1.80;;;5.90;99.90;;;;;;6159452;23;20021;-86
2022/11/28 00:07:42;;;;;;;4.88;2.10;;;5.90;99.90;;;;;;6184955;23;20314;-86
2022/11/28 00:10:09;;;;;;;4.75;1.67;;;5.90;99.90;;;;;;6184893;23;20017;-86
2022/11/28 00:12:35;;;;;;;2.72;1.55;;;5.90;99.90;;;;;;6158597;23;20100;-86
2022/11/28 00:15:01;;;;;;;5.57;2.17;;;6.80;99.90;;;;;;6158295;23;20035;-86
2022/11/28 00:17:27;;;;;;;3.58;2.03;;;4.90;99.90;;;;;;6158682;23;20137;-86
2022/11/28 00:19:53;;;;;;;5.00;2.47;;;5.90;99.90;;;;;;6158539;23;20053;-86
2022/11/28 00:22:18;;;;;;;3.00;1.80;;;6.80;99.90;;;;;;6184904;23;20105;-86
2022/11/28 00:24:44;;;;;;;3.17;2.05;;;6.40;99.90;;;;;;6185389;23;20067;-86
2022/11/28 00:27:10;;;;;;;4.68;2.22;;;6.10;99.90;;;;;;6158836;23;20024;-86
2022/11/28 00:29:37;;;;;;;4.78;1.90;;;5.90;99.90;;;;;;6185096;23;20072;-86
2022/11/28 00:32:02;;;;;;;2.63;1.52;;;6.20;99.90;;;;;;6184818;23;20017;-86
2022/11/28 00:34:28;;;;;;;4.32;2.00;;;5.90;99.90;;;;;;6184609;23;20020;-85
2022/11/28 00:36:54;;;;;;;3.70;1.40;;;6.80;99.90;;;;;;6184799;23;20015;-86
2022/11/28 00:39:19;;;;;;;2.15;1.30;;;6.60;99.90;;;;;;6158701;23;20151;-86
2022/11/28 00:41:45;;;;;;;2.83;1.42;;;6.80;99.90;;;;;;6185189;23;20031;-86
2022/11/28 00:44:11;;;;;;;3.55;1.83;;;6.40;99.90;;;;;;6158318;23;20428;-85
2022/11/28 00:46:37;;;;;;;3.30;1.67;;;6.40;99.90;;;;;;6184673;23;20340;-86
2022/11/28 00:49:03;;;;;;;3.47;2.13;;;5.90;99.90;;;;;;6185074;23;20088;-86
2022/11/28 00:51:31;;;;;;;2.55;1.35;;;5.90;99.90;;;;;;6158245;23;20091;-86
2022/11/28 00:53:58;;;;;;;5.30;1.98;;;6.70;99.90;;;;;;6159026;23;20017;-86
2022/11/28 00:56:30;;;;;;;3.83;1.80;;;6.60;99.90;;;;;;6185060;23;20071;-86
2022/11/28 00:58:57;;;;;;;4.18;2.10;;;6.50;99.90;;;;;;6184815;23;20021;-86
2022/11/28 01:01:26;;;;;;;4.60;2.17;;;6.60;99.90;;;;;;6157730;23;20096;-87
2022/11/28 01:03:54;;;;;;;3.92;2.10;;;6.50;99.90;;;;;;6158493;23;20021;-86
2022/11/28 01:06:32;;;;;;;3.95;1.95;;;7.10;99.90;;;;;;6158366;23;20021;-86
2022/11/28 01:09:01;;;;;;;3.63;1.77;;;5.90;99.90;;;;;;6185890;23;20028;-85
2022/11/28 01:11:28;;;;;;;3.88;2.10;;;6.50;99.90;;;;;;6186361;23;20013;-85
2022/11/28 01:13:59;;;;;;;4.13;1.88;;;5.90;99.90;;;;;;6135892;23;20075;-86
2022/11/28 01:16:25;;;;;;;3.90;2.38;;;5.90;99.90;;;;;;6186225;23;20021;-86
2022/11/28 01:18:51;;;;;;;2.75;1.73;;;6.20;99.90;;;;;;6186985;23;20014;-85
2022/11/28 01:21:17;;;;;;;3.35;1.55;;;5.20;99.90;;;;;;6186760;23;20083;-85
2022/11/28 01:23:43;;;;;;;4.50;2.35;;;6.40;99.90;;;;;;6186628;23;20016;-86
2022/11/28 01:26:14;;;;;;;2.75;1.77;;;6.60;99.90;;;;;;6186551;23;20096;-86
2022/11/28 01:28:39;;;;;;;3.03;1.75;;;6.30;99.90;;;;;;6186410;23;20071;-85
2022/11/28 01:31:08;;;;;;;3.83;1.80;;;6.50;99.90;;;;;;6186424;23;20017;-86
2022/11/28 01:33:34;;;;;;;3.58;1.80;;;6.20;99.90;;;;;;6160396;23;20021;-86
2022/11/28 01:36:01;;;;;;;2.88;1.60;;;5.10;99.90;;;;;;6186807;23;20020;-86
2022/11/28 01:38:27;;;;;;;4.55;1.88;;;6.90;99.90;;;;;;6186500;23;20017;-86
2022/11/28 01:40:54;;;;;;;4.30;2.13;;;6.80;99.90;;;;;;6186654;23;20012;-86
2022/11/28 01:43:21;;;;;;;5.60;2.50;;;6.00;99.90;;;;;;6159925;23;20024;-86
2022/11/28 01:45:47;;;;;;;3.97;2.30;;;6.70;99.90;;;;;;6160011;23;20024;-85
2022/11/28 01:48:17;;;;;;;2.97;1.58;;;4.90;99.90;;;;;;6186040;23;20017;-86
2022/11/28 01:50:44;;;;;;;4.15;2.22;;;6.60;99.90;;;;;;6186203;23;20544;-85
2022/11/28 01:53:11;;;;;;;3.22;1.90;;;7.20;99.90;;;;;;6160153;23;20101;-86
2022/11/28 01:55:45;;;;;;;2.97;1.80;;;6.00;99.90;;;;;;6159876;23;20100;-86
2022/11/28 01:58:12;;;;;;;3.83;2.25;;;6.00;99.90;;;;;;6186262;23;20031;-85
2022/11/28 02:00:37;;;;;;;3.10;1.67;;;6.90;99.90;;;;;;6159921;23;20028;-85
2022/11/28 02:03:11;;;;;;;2.85;1.70;;;4.60;99.90;;;;;;6186024;23;20092;-86
2022/11/28 02:05:38;;;;;;;4.38;2.58;;;6.60;99.90;;;;;;6186085;23;20017;-86
2022/11/28 02:08:04;;;;;;;4.85;2.58;;;6.00;99.90;;;;;;6186527;23;20017;-86
2022/11/28 02:10:41;;;;;;;3.30;2.08;;;6.10;99.90;;;;;;6159425;23;20020;-85
2022/11/28 02:13:07;;;;;;;3.25;2.05;;;6.10;99.90;;;;;;6185812;23;20024;-86
2022/11/28 02:15:51;;;;;;;4.38;2.00;;;6.10;99.90;;;;;;6159432;23;20018;-86
2022/11/28 02:18:45;;;;;;;4.00;2.10;;;6.10;99.90;;;;;;6186088;23;20017;-86
2022/11/28 02:21:25;;;;;;;6.55;2.97;;;6.10;99.90;;;;;;6037224;23;20050;-86
2022/11/28 02:24:03;;;;;;;4.32;2.50;;;6.10;99.90;;;;;;6037569;23;20079;-86
2022/11/28 02:26:59;;;;;;;4.95;2.58;;;6.10;99.90;;;;;;6037285;23;20023;-86
2022/11/28 02:29:32;;;;;;;5.35;2.33;;;6.10;99.90;;;;;;6037488;23;20015;-86
2022/11/28 02:32:03;;;;;;;4.28;2.40;;;6.60;99.90;;;;;;6037487;23;20027;-86
2022/11/28 02:34:53;;;;;;;4.53;2.38;;;6.10;99.90;;;;;;6037245;23;20387;-86
2022/11/28 02:37:33;;;;;;;6.00;2.60;;;6.10;99.90;;;;;;6037376;23;20336;-86
2022/11/28 02:39:59;;;;;;;4.88;2.42;;;6.10;99.90;;;;;;6037205;23;20031;-87
2022/11/28 02:43:05;;;;;;;3.72;2.33;;;6.80;99.90;;;;;;6037633;23;20030;-86
2022/11/28 02:45:52;;;;;;;5.20;2.53;;;6.10;99.90;;;;;;6037218;23;20023;-86
2022/11/28 02:48:30;;;;;;;9.88;2.42;;;6.10;99.90;;;;;;6037268;23;20024;-86
2022/11/28 02:51:04;;;;;;;5.57;2.58;;;6.10;99.90;;;;;;6013320;23;20019;-86
2022/11/28 02:53:32;;;;;;;3.58;2.55;;;6.10;99.90;;;;;;6037371;23;20023;-85
2022/11/28 02:55:59;;;;;;;3.80;2.20;;;6.10;99.90;;;;;;6037077;23;20030;-85
2022/11/28 02:58:25;;;;;;;3.17;2.25;;;6.30;99.90;;;;;;6131118;23;20239;-86
2022/11/28 03:00:51;;;;;;;4.30;2.47;;;7.00;99.90;;;;;;6185740;23;20025;-86
2022/11/28 03:03:43;;;;;;;5.78;2.35;;;7.30;99.90;;;;;;6159072;23;20048;-86
2022/11/28 03:06:20;;;;;;;4.88;3.08;;;6.10;99.90;;;;;;6185417;23;20083;-85
2022/11/28 03:09:02;;;;;;;6.28;3.45;;;6.10;99.90;;;;;;6185301;23;20021;-85
2022/11/28 03:11:50;;;;;;;5.63;3.25;;;6.00;99.90;;;;;;6185604;23;20384;-86
2022/11/28 03:14:52;;;;;;;5.38;2.85;;;6.20;99.90;;;;;;6158916;23;20067;-86
2022/11/28 03:17:36;;;;;;;5.10;2.63;;;6.10;99.90;;;;;;6185818;23;20332;-86
2022/11/28 03:20:27;;;;;;;5.75;3.08;;;6.10;99.90;;;;;;6185640;23;20067;-86
2022/11/28 03:23:06;;;;;;;4.88;3.03;;;6.60;99.90;;;;;;6185762;23;20009;-86
2022/11/28 03:25:57;;;;;;;4.25;2.58;;;6.30;99.90;;;;;;6186046;23;20048;-86
2022/11/28 03:28:26;;;;;;;5.72;3.20;;;6.10;99.90;;;;;;6185773;23;20024;-86
2022/11/28 03:31:15;;;;;;;5.35;2.95;;;6.40;99.90;;;;;;6158923;23;20017;-86
2022/11/28 03:33:47;;;;;;;5.70;2.55;;;6.10;99.90;;;;;;6185568;23;20024;-86
2022/11/28 03:36:24;;;;;;;5.05;2.80;;;6.60;99.90;;;;;;6185122;23;20017;-85
2022/11/28 03:39:01;;;;;;;5.85;2.55;;;6.90;99.90;;;;;;6185597;23;20017;-85
2022/11/28 03:41:39;;;;;;;3.17;2.17;;;6.60;99.90;;;;;;6159249;23;20052;-85
2022/11/28 03:44:14;;;;;;;5.00;3.20;;;6.10;99.90;;;;;;6185479;23;20348;-85
2022/11/28 03:46:47;;;;;;;3.83;2.30;;;6.30;99.90;;;;;;6185376;23;20048;-86
2022/11/28 03:49:19;;;;;;;5.63;2.80;;;6.10;99.90;;;;;;6158732;23;20411;-85
2022/11/28 03:51:59;;;;;;;6.38;3.30;;;6.60;99.90;;;;;;6158551;23;20017;-85
2022/11/28 03:54:45;;;;;;;4.38;2.90;;;6.30;99.90;;;;;;6185253;23;20028;-85
2022/11/28 03:57:23;;;;;;;6.07;3.10;;;6.10;99.90;;;;;;6185523;23;20017;-86
2022/11/28 03:59:52;;;;;;;4.55;2.72;;;6.20;99.90;;;;;;6185356;23;20024;-85
2022/11/28 04:02:38;;;;;;;5.10;2.60;;;6.20;99.90;;;;;;6184854;23;20027;-86
2022/11/28 04:05:25;;;;;;;4.63;2.88;;;6.20;99.90;;;;;;6158565;23;20028;-86
2022/11/28 04:08:15;;;;;;;5.35;3.58;;;6.20;99.90;;;;;;6185428;23;20021;-86
2022/11/28 04:10:52;;;;;;;5.35;3.15;;;6.20;99.90;;;;;;6185319;23;20014;-86
2022/11/28 04:13:18;;;;;;;4.85;3.08;;;6.20;99.90;;;;;;6158493;23;20396;-85
2022/11/28 04:16:06;;;;;;;4.18;2.88;;;6.20;99.90;;;;;;6158829;23;20378;-85
2022/11/28 04:18:58;;;;;;;5.20;3.40;;;6.20;99.90;;;;;;6158326;23;20024;-85
2022/11/28 04:21:30;;;;;;;6.35;3.70;;;6.20;99.90;;;;;;6158728;23;20017;-85
2022/11/28 04:24:07;;;;;;;4.93;2.67;;;6.20;99.90;;;;;;6184928;23;20092;-86
2022/11/28 04:26:35;;;;;;;5.85;3.63;;;6.20;99.90;;;;;;6184999;23;20036;-85
2022/11/28 04:29:09;;;;;;;8.13;3.95;;;6.90;99.90;;;;;;6158862;23;20017;-86
2022/11/28 04:31:36;;;;;;;5.50;3.45;;;6.20;99.90;;;;;;6184887;23;20013;-86
2022/11/28 04:34:06;;;;;;;4.35;2.92;;;5.40;99.90;;;;;;6185276;23;20017;-86
2022/11/28 04:36:36;;;;;;;5.05;3.30;;;6.30;99.90;;;;;;6158457;23;20100;-86
2022/11/28 04:39:06;;;;;;;6.82;4.38;;;7.20;99.90;;;;;;6158579;23;20021;-86
2022/11/28 04:42:02;;;;;;;4.57;3.13;;;6.90;99.90;;;;;;6185127;23;20013;-86
2022/11/28 04:44:46;;;;;;;5.97;3.80;;;6.30;99.90;;;;;;6166536;23;20347;-85
2022/11/28 04:47:12;;;;;;;6.13;3.65;;;6.30;99.90;;;;;;6160575;23;20021;-86
2022/11/28 04:49:38;;;;;;;5.85;3.20;;;6.30;99.90;;;;;;6186870;23;20040;-86
2022/11/28 04:52:13;;;;;;;5.18;3.10;;;6.70;99.90;;;;;;6160461;23;20022;-86
2022/11/28 04:55:06;;;;;;;5.50;2.95;;;6.30;99.90;;;;;;6160511;23;20019;-85
2022/11/28 04:57:38;;;;;;;5.80;3.63;;;6.30;99.90;;;;;;6186757;23;20448;-86
2022/11/28 05:00:16;;;;;;;6.10;3.80;;;6.30;99.90;;;;;;6160051;23;20025;-86
2022/11/28 05:02:45;;;;;;;5.22;3.80;;;6.40;99.90;;;;;;6160010;23;20013;-86
2022/11/28 05:05:15;;;;;;;4.57;2.97;;;6.30;99.90;;;;;;6160302;23;20029;-87
2022/11/28 05:07:41;;;;;;;4.32;3.10;;;6.40;99.90;;;;;;6160228;23;20096;-86
2022/11/28 05:10:09;;;;;;;4.57;3.00;;;6.80;99.90;;;;;;6186338;23;20057;-86
2022/11/28 05:12:35;;;;;;;5.38;3.22;;;6.40;99.90;;;;;;6186736;23;20400;-86
2022/11/28 05:15:01;;;;;;;3.92;2.50;;;7.40;99.90;;;;;;6186422;23;20021;-86
2022/11/28 05:17:26;;;;;;;4.18;2.90;;;6.40;99.90;;;;;;6186276;23;20027;-85
2022/11/28 05:19:52;;;;;;;4.30;2.53;;;6.40;99.90;;;;;;6186529;23;20092;-85
2022/11/28 05:22:18;;;;;;;4.47;3.50;;;7.40;99.90;;;;;;6186576;23;20017;-86
2022/11/28 05:24:43;;;;;;;7.78;3.60;;;6.50;99.90;;;;;;6187014;23;20340;-86
2022/11/28 05:27:10;;;;;;;5.63;3.65;;;6.30;99.90;;;;;;6159965;23;20017;-86
2022/11/28 05:29:36;;;;;;;4.45;3.13;;;6.70;99.90;;;;;;6160162;23;20021;-86
2022/11/28 05:32:03;;;;;;;6.18;4.30;;;7.30;99.90;;;;;;6160065;23;20017;-86
2022/11/28 05:34:29;;;;;;;7.15;4.85;;;6.60;99.90;;;;;;6159883;23;20029;-86
2022/11/28 05:36:58;;;;;;;6.47;4.53;;;6.60;99.90;;;;;;6186277;23;20024;-86
2022/11/28 05:39:25;;;;;;;7.70;4.85;;;6.60;99.90;;;;;;6186370;23;20023;-86
2022/11/28 05:41:53;;;;;;;6.78;4.38;;;6.70;99.90;;;;;;6160031;23;20024;-87
2022/11/28 05:44:18;;;;;;;7.43;4.38;;;7.20;99.90;;;;;;6186758;23;20395;-86
2022/11/28 05:46:44;;;;;;;6.60;4.32;;;6.70;99.90;;;;;;6186573;23;20053;-86
2022/11/28 05:49:10;;;;;;;7.65;5.05;;;5.70;99.90;;;;;;6159748;23;20017;-87
2022/11/28 05:51:35;;;;;;;5.90;4.28;;;6.80;99.90;;;;;;6159946;23;20017;-86
2022/11/28 05:54:01;;;;;;;5.60;4.18;;;5.20;99.90;;;;;;6159753;23;20460;-86
2022/11/28 05:56:27;;;;;;;5.75;4.30;;;7.70;99.90;;;;;;6186223;23;20017;-85
2022/11/28 05:58:53;;;;;;;5.43;4.07;;;7.80;99.90;;;;;;6186298;23;20071;-86
2022/11/28 06:01:24;;;;;;;4.28;3.05;;;7.00;99.90;;;;;;6186393;23;20079;-86
2022/11/28 06:03:56;;;;;;;5.53;3.67;;;7.80;99.90;;;;;;6185921;23;20025;-86
2022/11/28 06:06:23;;;;;;;5.07;3.33;;;7.60;99.90;;;;;;6186528;23;20051;-86
2022/11/28 06:08:51;;;;;;;5.63;3.90;;;6.90;99.90;;;;;;6159804;23;20067;-86
2022/11/28 06:11:18;;;;;;;5.93;4.20;;;7.20;99.90;;;;;;6186203;23;20387;-85
2022/11/28 06:13:45;;;;;;;6.05;4.53;;;7.30;99.90;;;;;;6186197;23;20020;-86
2022/11/28 06:16:14;;;;;;;7.07;4.90;;;7.00;99.90;;;;;;6159374;23;20017;-86
2022/11/28 06:18:40;;;;;;;5.05;3.90;;;7.90;99.90;;;;;;6159803;23;20017;-85
2022/11/28 06:21:08;;;;;;;6.43;4.60;;;7.60;99.90;;;;;;6186289;23;20361;-86
2022/11/28 06:23:34;;;;;;;7.40;4.65;;;7.20;99.90;;;;;;6186147;23;20028;-86
2022/11/28 06:26:05;;;;;;;8.23;5.68;;;7.60;99.90;;;;;;6159261;23;20023;-86
2022/11/28 06:28:31;;;;;;;7.50;4.90;;;7.10;99.90;;;;;;6159619;23;20462;-85
2022/11/28 06:30:56;;;;;;;9.85;5.85;;;7.10;99.90;;;;;;6186391;23;20395;-86
2022/11/28 06:33:22;;;;;;;8.35;5.30;;;7.10;99.90;;;;;;6186066;23;20013;-86
2022/11/28 06:35:48;;;;;;;10.95;6.18;;;7.10;99.90;;;;;;6159679;23;20017;-86
2022/11/28 06:38:13;;;;;;;8.07;4.88;;;7.90;99.90;;;;;;6186144;23;20032;-86
2022/11/28 06:40:39;;;;;;;6.22;4.35;;;7.30;99.90;;;;;;6185874;23;20020;-85
2022/11/28 06:43:05;;;;;;;7.95;4.38;;;8.00;99.90;;;;;;6160193;23;20021;-86
2022/11/28 06:45:33;;;;;;;7.07;5.30;;;8.00;99.90;;;;;;6185605;23;20340;-85
2022/11/28 06:47:59;;;;;;;5.68;4.05;;;7.20;99.90;;;;;;6159244;23;20013;-86
2022/11/28 06:50:25;;;;;;;6.75;4.15;;;7.90;99.90;;;;;;6186092;23;20088;-85
2022/11/28 06:52:52;;;;;;;5.78;3.80;;;7.20;99.90;;;;;;6186049;23;20490;-86
2022/11/28 06:55:18;;;;;;;7.78;4.60;;;7.40;99.90;;;;;;6185926;23;20448;-87
2022/11/28 06:57:44;;;;;;;7.78;4.30;;;7.20;99.90;;;;;;6159410;23;20135;-86
2022/11/28 07:00:10;;;;;;;6.75;4.63;;;6.50;99.90;;;;;;6159143;23;20053;-86
2022/11/28 07:02:36;;;;;;;8.27;4.03;;;7.20;99.90;;;;;;6159536;23;20028;-86
2022/11/28 07:05:02;;;;;;;5.70;3.80;;;8.00;99.90;;;;;;6159464;23;20021;-85
2022/11/28 07:07:28;;;;;;;6.40;4.18;;;7.20;99.90;;;;;;6185545;23;20437;-85
2022/11/28 07:09:56;;;;;;;7.05;4.25;;;7.70;99.90;;;;;;6185738;23;20016;-85
2022/11/28 07:12:21;;;;;;;6.95;4.18;;;7.30;99.90;;;;;;6158812;23;20021;-86
2022/11/28 07:14:47;;;;;;;8.13;4.88;;;7.40;99.90;;;;;;6159273;23;20017;-84
2022/11/28 07:17:13;;;;;;;8.93;4.78;;;8.20;99.90;;;;;;6185423;23;20416;-86
2022/11/28 07:19:41;;;;;;;6.40;3.90;;;8.10;99.90;;;;;;6185349;23;20193;-87
2022/11/28 07:22:08;;;;;;;7.65;3.97;;;8.00;99.90;;;;;;6185549;23;20013;-87
2022/11/28 07:24:34;;;;;;;6.68;3.97;;;7.30;99.90;;;;;;6185741;23;20044;-87
2022/11/28 07:27:00;;;;;;;5.72;3.38;;;8.10;99.90;;;;;;6158874;23;20472;-87
2022/11/28 07:29:32;;;;;;;6.85;3.55;;;7.30;99.90;;;;;;6158922;23;20013;-86
2022/11/28 07:31:57;;;;;;;5.78;3.03;;;7.30;99.90;;;;;;6185487;23;20017;-86
2022/11/28 07:34:23;;;;;;;5.05;2.80;;;8.20;99.90;;;;;;6158875;23;20044;-87
2022/11/28 07:36:49;;;;;;;4.03;2.67;;;7.60;99.90;;;;;;6159046;23;20020;-86
2022/11/28 07:39:16;;;;;;;3.40;2.35;;;7.30;99.90;;;;;;6158879;23;20041;-88
2022/11/28 07:41:42;;;;;;;406.05;268.23;;;7.70;99.90;;;;;;6158882;23;20064;-88
2022/11/28 07:44:10;;;;;;;26.17;24.60;;;7.70;99.90;;;;;;6158710;23;20017;-86
2022/11/28 07:46:36;;;;;;;44.83;41.63;;;8.00;99.90;;;;;;6158291;23;20025;-88
2022/11/28 07:49:03;;;;;;;431.10;326.48;;;8.10;99.90;;;;;;6158976;23;20356;-87
2022/11/28 07:51:32;;;;;;;377.27;314.58;;;7.40;99.90;;;;;;6158935;23;20017;-88
2022/11/28 07:53:59;;;;;;;320.98;241.15;;;7.40;99.90;;;;;;6158711;23;20451;-86
2022/11/28 07:56:28;;;;;;;164.38;142.18;;;7.30;99.90;;;;;;6133814;23;20025;-89
2022/11/28 07:58:53;;;;;;;454.65;319.25;;;7.60;99.90;;;;;;6185205;23;20084;-84
2022/11/28 08:01:24;;;;;;;204.00;170.88;;;8.20;99.90;;;;;;6158898;23;20385;-86
2022/11/28 08:03:52;;;;;;;26.65;24.98;;;7.30;99.90;;;;;;6158725;23;20325;-85
2022/11/28 08:06:20;;;;;;;29.63;27.58;;;7.40;99.90;;;;;;6158883;23;20048;-88
2022/11/28 08:08:47;;;;;;;15.32;14.25;;;7.50;99.90;;;;;;6185487;23;20013;-85
2022/11/28 08:11:15;;;;;;;164.13;155.05;;;7.40;99.90;;;;;;6158460;23;20057;-86
2022/11/28 08:13:41;;;;;;;57.53;54.60;;;8.10;99.90;;;;;;6185158;23;20021;-86
2022/11/28 08:16:11;;;;;;;298.77;273.27;;;7.50;99.90;;;;;;6158425;23;20096;-87
2022/11/28 08:18:40;;;;;;;471.77;352.38;;;8.30;99.90;;;;;;6187848;23;20053;-90
2022/11/28 08:21:11;;;;;;;531.42;309.35;;;7.50;99.90;;;;;;6161919;23;20052;-86
2022/11/28 08:23:50;;;;;;;470.77;291.80;;;7.50;99.90;;;;;;6161722;23;20020;-89
2022/11/28 08:26:22;;;;;;;540.85;368.17;;;6.90;99.90;;;;;;6161804;23;20347;-87
2022/11/28 08:28:52;;;;;;;524.50;310.50;;;7.50;99.90;;;;;;6162289;23;20029;-88
2022/11/28 08:31:20;;;;;;;637.55;379.33;;;8.30;99.90;;;;;;6162202;23;20017;-87
2022/11/28 08:33:50;;;;;;;10.30;9.60;;;8.00;99.90;;;;;;6162156;23;20095;-88
2022/11/28 08:36:19;;;;;;;47.70;44.95;;;8.20;99.90;;;;;;6178010;23;20017;-90
2022/11/28 08:38:46;;;;;;;10.85;9.70;;;8.30;99.90;;;;;;6162590;23;20025;-89
2022/11/28 08:41:15;;;;;;;119.95;112.85;;;8.20;99.90;;;;;;6162007;23;20017;-87
2022/11/28 08:43:40;;;;;;;93.85;85.20;;;7.70;99.90;;;;;;6188769;23;20009;-87
2022/11/28 08:46:10;;;;;;;211.77;190.57;;;8.00;99.90;;;;;;6161848;23;20496;-88
2022/11/28 08:48:36;;;;;;;372.52;273.48;;;6.90;99.90;;;;;;6161998;23;20086;-87
2022/11/28 08:51:03;;;;;;;340.65;312.20;;;7.80;99.90;;;;;;6162018;23;20029;-88
2022/11/28 08:53:29;;;;;;;214.32;199.65;;;7.60;99.90;;;;;;6162104;23;20055;-88
2022/11/28 08:55:54;;;;;;;200.70;184.20;;;8.10;99.90;;;;;;6161875;23;20049;-87
2022/11/28 08:58:20;;;;;;;469.55;296.70;;;8.10;99.90;;;;;;6161976;23;20021;-87
2022/11/28 09:00:46;;;;;;;118.18;111.72;;;8.20;99.90;;;;;;6162162;23;20013;-89
2022/11/28 09:03:16;;;;;;;16.23;14.25;;;7.60;99.90;;;;;;6188822;23;20017;-89
2022/11/28 09:05:44;;;;;;;285.58;269.15;;;7.60;99.90;;;;;;6162597;23;20021;-88
2022/11/28 09:08:11;;;;;;;186.80;171.95;;;7.80;99.90;;;;;;6188573;23;20017;-87
2022/11/28 09:10:38;;;;;;;245.82;222.70;;;8.10;99.90;;;;;;6162149;23;20025;-87
2022/11/28 09:13:04;;;;;;;262.80;248.65;;;7.60;99.90;;;;;;6162191;23;20080;-88
2022/11/28 09:15:31;;;;;;;686.47;358.02;;;8.40;99.90;;;;;;6161622;23;20017;-87
2022/11/28 09:17:57;;;;;;;168.65;154.88;;;7.60;99.90;;;;;;6162089;23;20009;-89
2022/11/28 09:20:23;;;;;;;536.80;279.42;;;8.50;99.90;;;;;;6162503;23;20380;-90
2022/11/28 09:22:49;;;;;;;838.63;439.00;;;8.00;99.90;;;;;;6162439;23;20048;-85
2022/11/28 09:25:15;;;;;;;759.53;373.57;;;8.20;99.90;;;;;;6162024;23;20052;-87
2022/11/28 09:27:41;;;;;;;979.90;448.13;;;7.70;99.90;;;;;;6162000;23;20017;-87
2022/11/28 09:30:07;;;;;;;156.27;148.32;;;7.70;99.90;;;;;;6186677;23;20023;-87
2022/11/28 09:32:34;;;;;;;633.50;402.58;;;7.70;99.90;;;;;;6160253;23;20013;-89
2022/11/28 09:34:59;;;;;;;801.63;430.60;;;7.70;99.90;;;;;;6160689;23;20036;-87
2022/11/28 09:37:27;;;;;;;434.83;384.88;;;7.70;99.90;;;;;;6160318;23;20049;-87
2022/11/28 09:39:53;;;;;;;1027.33;455.97;;;8.40;99.90;;;;;;6160275;23;20032;-86
2022/11/28 09:42:33;;;;;;;364.80;269.83;;;8.20;99.90;;;;;;6186899;23;20444;-88
2022/11/28 09:45:05;;;;;;;524.97;397.92;;;8.40;99.90;;;;;;6160283;23;20148;-89
2022/11/28 09:47:33;;;;;;;980.90;441.80;;;7.80;99.90;;;;;;6186981;23;20017;-88
2022/11/28 09:50:25;;;;;;;841.40;434.15;;;7.80;99.90;;;;;;6160148;23;20009;-88
2022/11/28 09:53:16;;;;;;;959.20;434.00;;;7.80;99.90;;;;;;6135601;23;20028;-91
2022/11/28 09:56:06;;;;;;;975.57;438.10;;;7.80;99.90;;;;;;6160746;23;20027;-88
2022/11/28 09:58:38;;;;;;;926.10;423.77;;;7.80;99.90;;;;;;6160287;23;20025;-91
2022/11/28 10:01:09;;;;;;;990.97;446.17;;;8.70;99.90;;;;;;6160376;23;20024;-90
2022/11/28 10:03:35;;;;;;;910.90;445.97;;;7.80;99.90;;;;;;6160123;23;20025;-91
2022/11/28 10:06:01;;;;;;;751.72;378.13;;;7.90;99.90;;;;;;6186476;23;20052;-91
2022/11/28 10:08:53;;;;;;;789.53;389.83;;;7.80;99.90;;;;;;6183527;23;20024;-88
2022/11/28 10:11:38;;;;;;;946.87;452.70;;;7.80;99.90;;;;;;6185017;23;20303;-85
2022/11/28 10:14:35;;;;;;;975.30;433.73;;;8.50;99.90;;;;;;6185789;23;20055;-84
2022/11/28 10:17:18;;;;;;;1116.53;465.27;;;7.90;99.90;;;;;;6159472;23;20017;-86
2022/11/28 10:20:09;;;;;;;951.33;424.97;;;7.90;99.90;;;;;;6184323;23;20063;-85
2022/11/28 10:23:20;;;;;;;1103.23;462.67;;;7.90;99.90;;;;;;6185305;23;20100;-85
2022/11/28 10:25:59;;;;;;;980.33;427.10;;;7.90;99.90;;;;;;6127515;23;20410;-85
2022/11/28 10:28:38;;;;;;;891.37;444.30;;;7.90;99.90;;;;;;6185619;23;20396;-87
2022/11/28 10:31:22;;;;;;;791.40;384.15;;;8.10;99.90;;;;;;6185796;23;20016;-85
2022/11/28 10:33:57;;;;;;;874.97;405.07;;;7.90;99.90;;;;;;6159655;23;20095;-86
2022/11/28 10:36:32;;;;;;;1094.50;464.00;;;8.30;99.90;;;;;;6185644;23;20017;-86
2022/11/28 10:39:01;;;;;;;866.37;407.10;;;8.40;99.90;;;;;;6185552;23;20071;-86
2022/11/28 10:41:36;;;;;;;981.50;420.70;;;8.00;99.90;;;;;;6159574;23;20016;-85
2022/11/28 10:44:11;;;;;;;866.40;445.67;;;8.70;99.90;;;;;;6158366;23;20048;-86
2022/11/28 10:46:48;;;;;;;1003.13;454.75;;;8.00;99.90;;;;;;6159417;23;20260;-86
2022/11/28 10:49:40;;;;;;;870.40;412.53;;;8.00;99.90;;;;;;6158777;23;20078;-87
2022/11/28 10:52:28;;;;;;;895.37;407.37;;;8.00;99.90;;;;;;6158741;23;20020;-86
2022/11/28 10:54:56;;;;;;;849.37;402.93;;;8.10;99.90;;;;;;6185825;23;20088;-86
2022/11/28 10:57:41;;;;;;;1118.70;472.37;;;8.10;99.90;;;;;;6185433;23;20414;-87
2022/11/28 11:00:17;;;;;;;1084.10;468.63;;;8.10;99.90;;;;;;6185669;23;20024;-86
2022/11/28 11:02:56;;;;;;;1027.53;464.63;;;8.10;99.90;;;;;;6185213;23;20024;-87
2022/11/28 11:05:27;;;;;;;1127.70;468.23;;;8.10;99.90;;;;;;6185508;23;20028;-87
2022/11/28 11:07:57;;;;;;;1075.53;465.70;;;8.80;99.90;;;;;;6159465;23;20313;-87
2022/11/28 11:10:29;;;;;;;974.03;429.50;;;8.20;99.90;;;;;;6185340;23;20021;-89
2022/11/28 11:12:55;;;;;;;1081.70;448.87;;;8.60;99.90;;;;;;6185708;23;20017;-85
2022/11/28 11:15:28;;;;;;;1151.83;470.67;;;8.70;99.90;;;;;;6158911;23;20013;-86
2022/11/28 11:17:54;;;;;;;733.93;328.93;;;8.20;99.90;;;;;;6159044;23;20020;-90
2022/11/28 11:20:37;;;;;;;649.28;351.67;;;8.40;99.90;;;;;;6185338;23;20317;-87
2022/11/28 11:23:16;;;;;;;750.15;373.17;;;8.20;99.90;;;;;;6185616;23;20016;-87
2022/11/28 11:26:00;;;;;;;772.42;376.48;;;8.30;99.90;;;;;;6185901;23;20097;-86
2022/11/28 11:28:44;;;;;;;896.80;439.57;;;8.90;99.90;;;;;;6159055;23;20028;-86
2022/11/28 11:31:32;;;;;;;816.80;438.90;;;8.30;99.90;;;;;;6185421;23;20051;-87
2022/11/28 11:34:06;;;;;;;956.33;427.27;;;7.90;99.90;;;;;;6185247;23;20049;-86
2022/11/28 11:36:34;;;;;;;956.43;425.33;;;8.30;99.90;;;;;;6158111;23;20024;-87
2022/11/28 11:39:10;;;;;;;891.80;418.93;;;8.40;99.90;;;;;;6185717;23;20395;-88
2022/11/28 11:41:38;;;;;;;980.50;436.33;;;8.40;99.90;;;;;;6184742;23;20028;-85
2022/11/28 11:44:25;;;;;;;911.00;419.73;;;8.40;99.90;;;;;;6158903;23;20021;-87
2022/11/28 11:46:53;;;;;;;976.43;434.80;;;8.90;99.90;;;;;;6158381;23;20024;-89
2022/11/28 11:49:28;;;;;;;994.23;430.77;;;8.50;99.90;;;;;;6185417;23;20095;-88
2022/11/28 11:51:56;;;;;;;1085.27;485.07;;;9.00;99.90;;;;;;6158280;23;20108;-86
2022/11/28 11:54:21;;;;;;;1012.83;435.60;;;9.00;99.90;;;;;;6158342;23;20083;-86
2022/11/28 11:56:49;;;;;;;1042.53;476.60;;;8.90;99.90;;;;;;6158364;23;20013;-88
2022/11/28 11:59:22;;;;;;;1051.77;474.70;;;8.50;99.90;;;;;;6185639;23;20452;-87
2022/11/28 12:01:54;;;;;;;953.03;426.33;;;8.50;99.90;;;;;;6184973;23;20064;-90
2022/11/28 12:04:33;;;;;;;1021.33;468.97;;;8.50;99.90;;;;;;6185213;23;20028;-85
2022/11/28 12:07:04;;;;;;;998.30;471.57;;;8.50;99.90;;;;;;6185065;23;20027;-83
2022/11/28 12:09:51;;;;;;;960.83;424.47;;;8.60;99.90;;;;;;6185303;23;20012;-84
2022/11/28 12:12:22;;;;;;;857.13;404.40;;;8.70;99.90;;;;;;6158535;23;20416;-84
2022/11/28 12:14:49;;;;;;;793.10;390.83;;;8.50;99.90;;;;;;6184682;23;20056;-85
2022/11/28 12:17:27;;;;;;;951.77;473.90;;;8.60;99.90;;;;;;6185239;23;20475;-87
2022/11/28 12:20:03;;;;;;;947.40;486.50;;;8.50;99.90;;;;;;6183696;23;20079;-86
2022/11/28 12:22:49;;;;;;;820.90;402.27;;;8.80;99.90;;;;;;6133771;23;20075;-85
2022/11/28 12:25:30;;;;;;;728.00;379.67;;;8.20;99.90;;;;;;6157533;23;20021;-85
2022/11/28 12:28:18;;;;;;;921.77;479.97;;;8.70;99.90;;;;;;6184421;23;20063;-88
2022/11/28 12:31:20;;;;;;;919.83;478.03;;;8.70;99.90;;;;;;6158545;23;20020;-84
2022/11/28 12:34:13;;;;;;;928.03;478.97;;;8.70;99.90;;;;;;6158384;23;20095;-86
2022/11/28 12:37:08;;;;;;;957.63;470.17;;;8.70;99.90;;;;;;6134975;23;20021;-85
2022/11/28 12:39:48;;;;;;;764.67;393.77;;;8.80;99.90;;;;;;6158263;23;20360;-88
2022/11/28 12:42:20;;;;;;;668.42;373.77;;;8.80;99.90;;;;;;6184271;23;20539;-85
2022/11/28 12:45:01;;;;;;;877.38;476.20;;;8.80;99.90;;;;;;6157853;23;20021;-88
2022/11/28 12:47:41;;;;;;;853.25;486.75;;;8.80;99.90;;;;;;6184967;23;20025;-86
2022/11/28 12:50:15;;;;;;;895.63;472.63;;;8.80;99.90;;;;;;6158000;23;20021;-86
2022/11/28 12:53:17;;;;;;;840.80;406.90;;;8.80;99.90;;;;;;6159575;23;20048;-88
2022/11/28 12:55:58;;;;;;;934.00;492.53;;;8.90;99.90;;;;;;6158329;23;20017;-90
2022/11/28 12:58:29;;;;;;;876.13;487.75;;;8.80;99.90;;;;;;6183785;23;20056;-90
2022/11/28 13:00:58;;;;;;;850.17;412.00;;;8.80;99.90;;;;;;6158260;23;20360;-88
2022/11/28 13:03:39;;;;;;;797.78;400.05;;;9.10;99.90;;;;;;6128770;23;20092;-87
2022/11/28 13:06:27;;;;;;;817.30;406.50;;;8.80;99.90;;;;;;6130927;23;20028;-89